Ernul, North Carolina
Current Conditions -  °F | °C
As of 1:54 PM on Sunday 21 Dec 2014 (Local Time) from KEWN Reporting Station
Overcast Overcast  
Wind Chill: 45°   Ceiling: 6000
Heat Index: 49°   Visibility: 10mi
Dew Point: 36°   Wind: 9mph
Humidity: 61%   Direction: 30°NNE
Pressure: 30.25"   Gusts: NA
Location:  35.25°N, 77.07°W
Report Text: KEWN 211854Z 03008KT 10SM OVC060 09/02 A3025 RMK AO2 SLP244 T00940022
Loading
Personal Weather Stations






























Interactive Weather Map New forecast layout! Learn more

10-Day Weather Forecast

Advertisements
Track Severe Weather on mobile